ACA290 KMCI-KATL
Flight info
| Callsign | ACA290 |
|---|---|
| Flight time | N/A |
| Altitude | 33000 |
| Route | LAKES5 COU FAM HITMN NEWBB IHAVE MTHEW CHPPR1 |
| Aircraft | B738/M-SDGIJ1LRWY/SB1 |
Departure
| Time | 2026-05-07 15:44 |
|---|---|
| Airport | Kansas City International Airport (KMCI) |
Arrival
| Time | N/A |
|---|---|
| Airport | Hartsfield Jackson Atlanta International Airport (KATL) |
| Time | Latitude | Longitude | Altitude | Speed | Heading |
|---|---|---|---|---|---|
| 2026-05-07 15:34 | 39.30053 | -94.71813 | 982 ft | 0 kts | 192° |
| 2026-05-07 15:37 | 39.30056 | -94.71812 | 982 ft | 2 kts | 193° |
| 2026-05-07 15:37 | 39.30101 | -94.71796 | 982 ft | 7 kts | 206° |
| 2026-05-07 15:38 | 39.30116 | -94.71774 | 981 ft | 0 kts | 266° |
| 2026-05-07 15:38 | 39.30114 | -94.71825 | 982 ft | 10 kts | 281° |
| 2026-05-07 15:39 | 39.30133 | -94.71958 | 987 ft | 19 kts | 281° |
| 2026-05-07 15:39 | 39.30180 | -94.72231 | 993 ft | 30 kts | 277° |
| 2026-05-07 15:39 | 39.30232 | -94.72353 | 996 ft | 24 kts | 332° |
| 2026-05-07 15:39 | 39.30524 | -94.72307 | 995 ft | 40 kts | 9° |
| 2026-05-07 15:40 | 39.30841 | -94.72216 | 990 ft | 53 kts | 12° |
| 2026-05-07 15:40 | 39.31085 | -94.72147 | 988 ft | 50 kts | 12° |
| 2026-05-07 15:40 | 39.31247 | -94.72094 | 989 ft | 19 kts | 12° |
| 2026-05-07 15:40 | 39.31435 | -94.72044 | 988 ft | 25 kts | 10° |
| 2026-05-07 15:41 | 39.31636 | -94.71995 | 989 ft | 33 kts | 12° |
| 2026-05-07 15:41 | 39.31794 | -94.71935 | 986 ft | 39 kts | 14° |
| 2026-05-07 15:41 | 39.31945 | -94.71886 | 983 ft | 0 kts | 13° |
| 2026-05-07 15:41 | 39.31961 | -94.71880 | 983 ft | 2 kts | 13° |
| 2026-05-07 15:42 | 39.32011 | -94.71866 | 982 ft | 12 kts | 12° |
| 2026-05-07 15:42 | 39.32123 | -94.71839 | 982 ft | 20 kts | 358° |
| 2026-05-07 15:42 | 39.32194 | -94.71927 | 980 ft | 26 kts | 285° |
| 2026-05-07 15:42 | 39.32156 | -94.72103 | 975 ft | 0 kts | 197° |
| 2026-05-07 15:43 | 39.32155 | -94.72103 | 975 ft | 0 kts | 197° |
| 2026-05-07 15:43 | 39.32113 | -94.72116 | 976 ft | 33 kts | 190° |
| 2026-05-07 15:44 | 39.31336 | -94.72360 | 989 ft | 134 kts | 201° |
| 2026-05-07 15:44 | 39.30691 | -94.72679 | 1204 ft | 155 kts | 203° |
| 2026-05-07 15:44 | 39.29711 | -94.72918 | 1903 ft | 149 kts | 191° |
| 2026-05-07 15:44 | 39.28679 | -94.73030 | 2682 ft | 153 kts | 191° |
| 2026-05-07 15:45 | 39.27175 | -94.73222 | 3393 ft | 175 kts | 191° |
| 2026-05-07 15:45 | 39.26023 | -94.73386 | 3955 ft | 185 kts | 191° |
| 2026-05-07 15:45 | 39.25155 | -94.73508 | 4330 ft | 195 kts | 191° |
| 2026-05-07 15:45 | 39.23270 | -94.73780 | 5109 ft | 215 kts | 191° |
| 2026-05-07 15:46 | 39.20763 | -94.73416 | 5996 ft | 250 kts | 160° |
| 2026-05-07 15:46 | 39.19349 | -94.71957 | 6529 ft | 277 kts | 126° |
| 2026-05-07 15:46 | 39.18681 | -94.69759 | 7073 ft | 294 kts | 99° |
| 2026-05-07 15:47 | 39.18539 | -94.67300 | 7793 ft | 301 kts | 91° |
| 2026-05-07 15:47 | 39.18498 | -94.64778 | 8613 ft | 304 kts | 91° |
| 2026-05-07 15:47 | 39.18392 | -94.62061 | 9428 ft | 309 kts | 93° |
| 2026-05-07 15:47 | 39.18125 | -94.58385 | 10463 ft | 317 kts | 95° |
| 2026-05-07 15:48 | 39.17954 | -94.56458 | 10757 ft | 330 kts | 95° |
| 2026-05-07 15:48 | 39.17576 | -94.52441 | 11391 ft | 352 kts | 95° |
| 2026-05-07 15:48 | 39.17274 | -94.49281 | 11872 ft | 367 kts | 95° |
| 2026-05-07 15:48 | 39.16998 | -94.46371 | 12239 ft | 382 kts | 95° |
| 2026-05-07 15:49 | 39.16673 | -94.42918 | 12670 ft | 398 kts | 95° |
| 2026-05-07 15:49 | 39.16340 | -94.39352 | 13065 ft | 414 kts | 95° |
| 2026-05-07 15:49 | 39.15990 | -94.35616 | 13461 ft | 430 kts | 94° |
| 2026-05-07 15:49 | 39.15623 | -94.31703 | 13842 ft | 445 kts | 95° |
| 2026-05-07 15:50 | 39.15249 | -94.27747 | 14473 ft | 453 kts | 95° |
| 2026-05-07 15:50 | 39.14863 | -94.23689 | 15138 ft | 460 kts | 95° |
| 2026-05-07 15:50 | 39.14601 | -94.20943 | 15613 ft | 464 kts | 95° |
| 2026-05-07 15:50 | 39.14077 | -94.15475 | 16523 ft | 471 kts | 95° |
| 2026-05-07 15:51 | 39.13808 | -94.12679 | 16945 ft | 475 kts | 95° |
| 2026-05-07 15:51 | 39.13399 | -94.08427 | 17625 ft | 479 kts | 95° |
| 2026-05-07 15:51 | 39.12985 | -94.04150 | 18248 ft | 485 kts | 95° |
| 2026-05-07 15:51 | 39.12462 | -93.98751 | 19008 ft | 492 kts | 95° |
| 2026-05-07 15:52 | 39.12175 | -93.95795 | 19446 ft | 495 kts | 95° |
| 2026-05-07 15:52 | 39.11760 | -93.91542 | 20022 ft | 501 kts | 95° |
| 2026-05-07 15:52 | 39.11326 | -93.87114 | 20590 ft | 507 kts | 95° |
| 2026-05-07 15:52 | 39.10881 | -93.82589 | 21160 ft | 512 kts | 95° |
| 2026-05-07 15:53 | 39.10315 | -93.76856 | 21815 ft | 519 kts | 95° |
| 2026-05-07 15:53 | 39.09887 | -93.72558 | 22337 ft | 523 kts | 96° |
| 2026-05-07 15:53 | 39.09618 | -93.69857 | 22620 ft | 527 kts | 96° |
| 2026-05-07 15:53 | 39.08989 | -93.63582 | 23336 ft | 533 kts | 96° |
| 2026-05-07 15:54 | 39.08584 | -93.59556 | 23777 ft | 537 kts | 96° |
| 2026-05-07 15:54 | 39.08262 | -93.56370 | 24111 ft | 540 kts | 96° |
| 2026-05-07 15:54 | 39.07651 | -93.50336 | 24755 ft | 545 kts | 96° |
| 2026-05-07 15:54 | 39.07156 | -93.45480 | 25209 ft | 550 kts | 96° |
| 2026-05-07 15:55 | 39.06823 | -93.42224 | 25553 ft | 552 kts | 96° |
| 2026-05-07 15:55 | 39.06326 | -93.37387 | 26142 ft | 552 kts | 96° |
| 2026-05-07 15:55 | 39.05821 | -93.32485 | 26828 ft | 551 kts | 96° |
| 2026-05-07 15:55 | 39.05231 | -93.26776 | 27573 ft | 549 kts | 97° |
| 2026-05-07 15:56 | 39.04890 | -93.23495 | 28000 ft | 548 kts | 97° |
| 2026-05-07 15:56 | 39.04392 | -93.18711 | 28633 ft | 546 kts | 96° |
| 2026-05-07 15:56 | 39.03883 | -93.13841 | 29154 ft | 546 kts | 97° |
| 2026-05-07 15:56 | 39.03382 | -93.09056 | 29576 ft | 548 kts | 97° |
| 2026-05-07 15:57 | 39.02870 | -93.04187 | 29964 ft | 551 kts | 97° |
| 2026-05-07 15:57 | 39.02394 | -92.99693 | 30383 ft | 551 kts | 97° |
| 2026-05-07 15:57 | 39.01875 | -92.94807 | 30878 ft | 550 kts | 97° |
| 2026-05-07 15:57 | 39.01343 | -92.90344 | 31300 ft | 550 kts | 99° |
| 2026-05-07 15:58 | 39.00658 | -92.85854 | 31735 ft | 550 kts | 103° |
| 2026-05-07 15:58 | 38.99754 | -92.81456 | 32060 ft | 551 kts | 107° |
| 2026-05-07 15:58 | 38.98569 | -92.76796 | 32076 ft | 554 kts | 111° |
| 2026-05-07 15:59 | 38.95985 | -92.68271 | 32080 ft | 549 kts | 114° |
| 2026-05-07 15:59 | 38.93034 | -92.59248 | 32083 ft | 549 kts | 115° |
| 2026-05-07 16:00 | 38.90071 | -92.50193 | 32087 ft | 549 kts | 114° |
| 2026-05-07 16:00 | 38.86708 | -92.39715 | 32085 ft | 550 kts | 114° |
| 2026-05-07 16:01 | 38.84309 | -92.32144 | 32084 ft | 549 kts | 115° |
| 2026-05-07 16:01 | 38.81297 | -92.23154 | 32081 ft | 548 kts | 119° |
| 2026-05-07 16:02 | 38.77528 | -92.14806 | 32085 ft | 543 kts | 128° |
| 2026-05-07 16:02 | 38.73334 | -92.07241 | 32085 ft | 541 kts | 131° |
| 2026-05-07 16:03 | 38.68832 | -91.99515 | 32079 ft | 541 kts | 131° |
| 2026-05-07 16:03 | 38.63646 | -91.90556 | 32079 ft | 541 kts | 131° |
| 2026-05-07 16:04 | 38.59949 | -91.84075 | 32069 ft | 542 kts | 130° |
| 2026-05-07 16:04 | 38.55524 | -91.76255 | 32073 ft | 543 kts | 130° |
| 2026-05-07 16:05 | 38.51134 | -91.68474 | 32072 ft | 543 kts | 130° |
| 2026-05-07 16:05 | 38.46905 | -91.60987 | 32071 ft | 541 kts | 130° |
| 2026-05-07 16:06 | 38.41895 | -91.52149 | 32355 ft | 548 kts | 130° |
| 2026-05-07 16:06 | 38.40403 | -91.49522 | 32712 ft | 545 kts | 131° |
| 2026-05-07 16:06 | 38.38184 | -91.45614 | 33041 ft | 546 kts | 131° |
| 2026-05-07 16:07 | 38.33895 | -91.38083 | 33075 ft | 542 kts | 131° |
| 2026-05-07 16:07 | 38.29477 | -91.30344 | 33081 ft | 543 kts | 132° |
| 2026-05-07 16:08 | 38.25050 | -91.22613 | 33096 ft | 542 kts | 132° |
| 2026-05-07 16:08 | 38.20615 | -91.14889 | 33091 ft | 542 kts | 133° |
| 2026-05-07 16:09 | 38.15677 | -91.06306 | 33089 ft | 543 kts | 133° |
| 2026-05-07 16:09 | 38.12136 | -91.00163 | 33074 ft | 542 kts | 133° |
| 2026-05-07 16:10 | 38.07686 | -90.92461 | 33071 ft | 543 kts | 133° |
| 2026-05-07 16:10 | 38.03236 | -90.84774 | 33074 ft | 540 kts | 133° |
| 2026-05-07 16:11 | 37.98792 | -90.77119 | 33074 ft | 542 kts | 133° |
| 2026-05-07 16:11 | 37.93757 | -90.68475 | 33079 ft | 543 kts | 134° |
| 2026-05-07 16:12 | 37.90008 | -90.62045 | 33084 ft | 544 kts | 133° |
| 2026-05-07 16:12 | 37.85545 | -90.54408 | 33085 ft | 541 kts | 134° |
| 2026-05-07 16:13 | 37.81072 | -90.46770 | 33110 ft | 544 kts | 134° |